Time;durP1;ratioP1;P1;durP2;ratioP2;P2;SDS_P1;SDS_P2;PMS_P1;PMS_P2;Temp;Humidity;BMP_temperature;BMP_pressure;BME280_temperature;BME280_humidity;BME280_pressure;Samples;Min_cycle;Max_cycle;Signal;HPM_P1;HPM_P2
2023/07/17 00:01:06;;;;;;;7.57;3.60;;;16.30;86.10;;;;;;4988878;28;20018;-71
2023/07/17 00:03:32;;;;;;;6.95;3.10;;;16.20;86.10;;;;;;4986201;28;20109;-71
2023/07/17 00:05:57;;;;;;;7.10;3.30;;;16.20;86.00;;;;;;4984132;28;20100;-71
2023/07/17 00:08:23;;;;;;;5.10;3.22;;;16.20;85.80;;;;;;4988335;28;20342;-71
2023/07/17 00:10:49;;;;;;;7.47;3.20;;;16.20;85.90;;;;;;4988600;28;20112;-71
2023/07/17 00:13:14;;;;;;;6.50;3.58;;;16.10;85.90;;;;;;4989106;28;20028;-71
2023/07/17 00:15:40;;;;;;;6.63;3.38;;;16.10;85.80;;;;;;4985345;28;20041;-74
2023/07/17 00:18:05;;;;;;;7.18;2.95;;;16.10;86.10;;;;;;4987601;28;20480;-71
2023/07/17 00:20:32;;;;;;;8.05;3.40;;;16.00;86.20;;;;;;4979291;28;20193;-72
2023/07/17 00:22:57;;;;;;;7.80;3.53;;;16.00;86.40;;;;;;4988686;28;20492;-71
2023/07/17 00:25:23;;;;;;;7.32;3.28;;;16.00;86.50;;;;;;4987032;28;20105;-71
2023/07/17 00:27:48;;;;;;;9.63;3.80;;;15.90;86.30;;;;;;4980695;28;20046;-75
2023/07/17 00:30:14;;;;;;;6.22;3.30;;;15.90;86.50;;;;;;4986301;28;20030;-72
2023/07/17 00:32:39;;;;;;;8.98;3.47;;;15.90;86.40;;;;;;4987156;28;20034;-71
2023/07/17 00:35:05;;;;;;;6.45;3.28;;;15.90;86.80;;;;;;4983297;28;20130;-71
2023/07/17 00:37:31;;;;;;;8.30;3.50;;;15.90;86.70;;;;;;4991760;28;20080;-71
2023/07/17 00:39:57;;;;;;;7.35;3.40;;;15.90;86.90;;;;;;4990984;28;20408;-71
2023/07/17 00:42:22;;;;;;;7.72;3.88;;;15.80;87.00;;;;;;4991355;28;20053;-71
2023/07/17 00:44:48;;;;;;;8.25;3.50;;;15.90;87.00;;;;;;4987368;28;20041;-71
2023/07/17 00:47:13;;;;;;;8.63;3.58;;;15.90;86.90;;;;;;4983514;28;20375;-72
2023/07/17 00:49:40;;;;;;;8.00;3.53;;;15.90;86.80;;;;;;4976681;28;20058;-71
2023/07/17 00:52:08;;;;;;;6.55;3.67;;;16.00;86.50;;;;;;4984314;28;20098;-71
2023/07/17 00:54:34;;;;;;;9.05;3.35;;;16.00;86.40;;;;;;4986059;28;20034;-72
2023/07/17 00:57:02;;;;;;;6.25;3.70;;;16.00;86.50;;;;;;4984127;28;20034;-72
2023/07/17 00:59:29;;;;;;;7.68;3.45;;;16.00;86.40;;;;;;4984780;28;20076;-72
2023/07/17 01:01:55;;;;;;;8.45;3.50;;;16.10;86.30;;;;;;4982789;28;20439;-71
2023/07/17 01:04:21;;;;;;;8.80;3.58;;;16.10;86.50;;;;;;4985401;28;20022;-71
2023/07/17 01:06:46;;;;;;;8.77;3.90;;;16.10;86.30;;;;;;4981483;28;20037;-71
2023/07/17 01:09:12;;;;;;;7.18;3.22;;;16.10;86.10;;;;;;4993731;28;20030;-71
2023/07/17 01:11:38;;;;;;;8.43;3.47;;;16.10;85.80;;;;;;4985007;28;20030;-71
2023/07/17 01:14:03;;;;;;;5.82;3.47;;;16.10;86.10;;;;;;4984172;28;20026;-72
2023/07/17 01:16:29;;;;;;;7.10;3.33;;;16.10;85.90;;;;;;4980665;28;20034;-72
2023/07/17 01:18:54;;;;;;;6.88;3.17;;;16.10;85.60;;;;;;4988001;28;20046;-71
2023/07/17 01:21:25;;;;;;;6.75;3.90;;;16.10;85.90;;;;;;4984432;28;20041;-71
2023/07/17 01:23:52;;;;;;;5.75;3.20;;;16.10;85.80;;;;;;4982503;28;20026;-72
2023/07/17 01:26:18;;;;;;;6.22;3.53;;;16.00;85.90;;;;;;4976162;28;20030;-71
2023/07/17 01:28:45;;;;;;;6.93;3.50;;;16.00;85.90;;;;;;4983838;28;20034;-72
2023/07/17 01:31:11;;;;;;;9.10;3.50;;;15.90;86.20;;;;;;4986682;28;20041;-71
2023/07/17 01:33:37;;;;;;;5.35;3.00;;;15.90;86.30;;;;;;4986843;28;20149;-71
2023/07/17 01:36:05;;;;;;;8.35;3.67;;;15.80;86.60;;;;;;4977374;28;20043;-72
2023/07/17 01:38:31;;;;;;;8.60;3.50;;;15.70;86.50;;;;;;4985584;28;20509;-73
2023/07/17 01:40:56;;;;;;;7.70;3.63;;;15.80;86.60;;;;;;4985477;28;20184;-71
2023/07/17 01:43:22;;;;;;;5.68;3.42;;;15.80;86.50;;;;;;4987059;28;20121;-71
2023/07/17 01:45:48;;;;;;;9.20;3.60;;;16.00;86.50;;;;;;4980885;28;20026;-71
2023/07/17 01:48:14;;;;;;;6.13;3.30;;;16.00;86.10;;;;;;4988963;28;20022;-71
2023/07/17 01:50:46;;;;;;;8.93;3.40;;;16.00;86.10;;;;;;4987901;28;20377;-71
2023/07/17 01:53:12;;;;;;;6.63;3.20;;;16.10;85.80;;;;;;4985522;28;20331;-72
2023/07/17 01:55:38;;;;;;;8.70;3.10;;;16.10;85.70;;;;;;4980309;28;20027;-71
2023/07/17 01:58:03;;;;;;;5.93;3.08;;;16.10;85.70;;;;;;4989837;28;20034;-71
2023/07/17 02:00:29;;;;;;;6.50;3.17;;;16.20;85.40;;;;;;4985268;28;20138;-72
2023/07/17 02:02:55;;;;;;;6.95;3.30;;;16.20;85.10;;;;;;4986466;28;20109;-71
2023/07/17 02:05:20;;;;;;;5.90;3.05;;;16.20;85.00;;;;;;4989296;28;20223;-73
2023/07/17 02:07:46;;;;;;;6.47;3.22;;;16.20;84.90;;;;;;4987512;28;20462;-72
2023/07/17 02:10:12;;;;;;;7.25;3.33;;;16.20;85.00;;;;;;4989001;28;20430;-71
2023/07/17 02:12:38;;;;;;;9.50;3.45;;;16.20;84.80;;;;;;4987593;28;20109;-71
2023/07/17 02:15:06;;;;;;;8.00;3.28;;;16.20;84.50;;;;;;4981038;28;20138;-72
2023/07/17 02:17:32;;;;;;;8.63;3.53;;;16.20;84.40;;;;;;4985956;28;20031;-72
2023/07/17 02:19:58;;;;;;;6.20;3.08;;;16.20;84.40;;;;;;4982914;28;20051;-74
2023/07/17 02:22:23;;;;;;;6.53;3.42;;;16.10;84.60;;;;;;4982208;28;20091;-71
2023/07/17 02:24:49;;;;;;;6.97;3.50;;;16.10;84.60;;;;;;4982932;28;20105;-71
2023/07/17 02:27:15;;;;;;;6.53;3.47;;;16.10;84.70;;;;;;4984624;28;20053;-71
2023/07/17 02:29:41;;;;;;;6.75;3.47;;;16.20;84.40;;;;;;4983467;28;20037;-72
2023/07/17 02:32:06;;;;;;;6.88;3.10;;;16.10;84.50;;;;;;4977346;28;20073;-71
2023/07/17 02:34:32;;;;;;;6.53;3.80;;;16.20;84.10;;;;;;4989644;28;20050;-71
2023/07/17 02:36:57;;;;;;;7.25;3.83;;;16.20;84.30;;;;;;4986851;28;20057;-71
2023/07/17 02:39:23;;;;;;;7.22;3.13;;;16.30;84.10;;;;;;4989620;28;20054;-71
2023/07/17 02:41:49;;;;;;;8.10;3.10;;;16.30;83.90;;;;;;4988214;28;20376;-70
2023/07/17 02:44:14;;;;;;;7.30;3.33;;;16.30;84.00;;;;;;4986385;28;20164;-70
2023/07/17 02:46:41;;;;;;;7.13;3.22;;;16.30;83.90;;;;;;4986687;28;20719;-70
2023/07/17 02:49:07;;;;;;;7.25;3.40;;;16.30;84.90;;;;;;4985684;28;20045;-70
2023/07/17 02:51:32;;;;;;;6.95;3.65;;;16.20;85.30;;;;;;4990319;28;20439;-71
2023/07/17 02:53:58;;;;;;;7.57;3.30;;;16.00;86.10;;;;;;4989858;28;20053;-70
2023/07/17 02:56:23;;;;;;;6.68;3.55;;;16.00;86.40;;;;;;4983206;28;20263;-71
2023/07/17 02:58:53;;;;;;;8.82;3.55;;;15.90;86.60;;;;;;4990634;28;20580;-72
2023/07/17 03:01:20;;;;;;;9.65;3.53;;;15.90;87.50;;;;;;4987241;28;20485;-70
2023/07/17 03:03:45;;;;;;;7.15;3.05;;;15.80;87.40;;;;;;4987251;28;20025;-70
2023/07/17 03:06:11;;;;;;;6.47;3.22;;;15.70;87.90;;;;;;4992210;28;20125;-72
2023/07/17 03:08:36;;;;;;;6.88;3.45;;;15.70;88.40;;;;;;4988084;28;20034;-71
2023/07/17 03:11:05;;;;;;;8.40;3.78;;;15.50;88.90;;;;;;4987091;28;20098;-71
2023/07/17 03:13:31;;;;;;;8.25;3.40;;;15.50;89.10;;;;;;4990487;28;20432;-71
2023/07/17 03:16:01;;;;;;;9.00;3.45;;;15.50;89.70;;;;;;4986153;28;20160;-71
2023/07/17 03:18:26;;;;;;;13.98;4.13;;;15.40;89.90;;;;;;4986643;28;20098;-71
2023/07/17 03:20:54;;;;;;;9.25;4.20;;;15.40;90.40;;;;;;4986383;28;20125;-71
2023/07/17 03:23:19;;;;;;;8.10;3.88;;;15.30;90.90;;;;;;4987583;28;20381;-74
2023/07/17 03:25:45;;;;;;;10.05;4.57;;;15.30;90.70;;;;;;4982265;28;20023;-71
2023/07/17 03:28:10;;;;;;;12.02;4.80;;;15.30;90.80;;;;;;4999604;28;20045;-72
2023/07/17 03:30:36;;;;;;;9.88;4.05;;;15.30;90.80;;;;;;4987099;28;20138;-71
2023/07/17 03:33:03;;;;;;;11.45;4.85;;;15.30;91.20;;;;;;4986581;28;20075;-72
2023/07/17 03:35:28;;;;;;;8.38;4.13;;;15.30;91.20;;;;;;4986554;28;20062;-71
2023/07/17 03:37:54;;;;;;;8.55;3.72;;;15.20;91.10;;;;;;4983439;28;20444;-72
2023/07/17 03:40:19;;;;;;;7.90;4.05;;;15.30;91.20;;;;;;4989415;28;20030;-71
2023/07/17 03:42:44;;;;;;;8.05;4.18;;;15.20;91.70;;;;;;4986396;28;20033;-73
2023/07/17 03:45:10;;;;;;;11.45;4.07;;;15.20;91.60;;;;;;4980039;28;20450;-75
2023/07/17 03:47:36;;;;;;;10.52;4.55;;;15.20;91.70;;;;;;4987046;28;20112;-72
2023/07/17 03:50:01;;;;;;;9.02;4.50;;;15.20;91.60;;;;;;4984790;28;20081;-72
2023/07/17 03:52:27;;;;;;;11.07;4.18;;;15.30;91.50;;;;;;4983793;28;20063;-72
2023/07/17 03:54:53;;;;;;;10.20;4.53;;;15.30;91.60;;;;;;4983556;28;20165;-72
2023/07/17 03:57:18;;;;;;;9.35;4.22;;;15.30;91.60;;;;;;4979055;28;20134;-73
2023/07/17 03:59:52;;;;;;;12.32;4.88;;;15.30;91.50;;;;;;4987852;28;20030;-72
2023/07/17 04:02:18;;;;;;;11.77;4.97;;;15.30;91.60;;;;;;4985092;28;20034;-71
2023/07/17 04:04:43;;;;;;;10.55;4.85;;;15.30;91.70;;;;;;4992629;28;20089;-74
2023/07/17 04:07:09;;;;;;;10.10;4.53;;;15.30;91.30;;;;;;4989352;28;20038;-72
2023/07/17 04:09:34;;;;;;;14.18;5.50;;;15.30;91.50;;;;;;4980591;28;20105;-70
2023/07/17 04:11:59;;;;;;;9.65;4.60;;;15.30;91.20;;;;;;4987091;28;20157;-73
2023/07/17 04:14:25;;;;;;;14.63;4.80;;;15.30;91.40;;;;;;4984317;28;20042;-72
2023/07/17 04:16:51;;;;;;;12.23;4.53;;;15.30;91.20;;;;;;4983647;28;20042;-71
2023/07/17 04:19:16;;;;;;;10.93;4.32;;;15.30;91.10;;;;;;4988476;28;20057;-71
2023/07/17 04:21:41;;;;;;;12.98;5.22;;;15.30;91.30;;;;;;4981433;28;20085;-72
2023/07/17 04:24:07;;;;;;;10.57;4.35;;;15.40;91.10;;;;;;4982840;28;20034;-71
2023/07/17 04:26:32;;;;;;;12.15;5.13;;;15.40;91.10;;;;;;4977269;28;20117;-72
2023/07/17 04:28:58;;;;;;;7.50;3.85;;;15.40;91.30;;;;;;4986058;28;20436;-67
2023/07/17 04:31:23;;;;;;;7.88;4.13;;;15.40;90.70;;;;;;4985663;28;20042;-67
2023/07/17 04:33:49;;;;;;;12.07;5.05;;;15.50;91.00;;;;;;4984970;28;20050;-67
2023/07/17 04:36:14;;;;;;;10.63;4.70;;;15.50;91.00;;;;;;4982895;28;20481;-67
2023/07/17 04:38:40;;;;;;;11.27;4.35;;;15.50;90.70;;;;;;4984758;28;20121;-67
2023/07/17 04:41:05;;;;;;;10.48;4.40;;;15.50;90.50;;;;;;4982093;28;20108;-66
2023/07/17 04:43:31;;;;;;;12.63;4.78;;;15.60;90.60;;;;;;4986915;28;20053;-67
2023/07/17 04:45:56;;;;;;;9.55;3.92;;;15.60;90.20;;;;;;4982841;28;20077;-68
2023/07/17 04:48:23;;;;;;;11.05;4.50;;;15.60;90.20;;;;;;4986575;28;20045;-67
2023/07/17 04:50:48;;;;;;;9.27;4.22;;;15.70;89.80;;;;;;4984049;28;20026;-71
2023/07/17 04:53:14;;;;;;;10.45;4.10;;;15.70;89.70;;;;;;4980907;28;20487;-66
2023/07/17 04:55:39;;;;;;;11.77;4.65;;;15.70;89.70;;;;;;4989032;28;20065;-68
2023/07/17 04:58:05;;;;;;;9.90;4.18;;;15.80;89.70;;;;;;4981962;28;20420;-66
2023/07/17 05:00:33;;;;;;;10.88;3.63;;;15.80;89.30;;;;;;4984508;28;20030;-69
2023/07/17 05:02:58;;;;;;;7.70;4.13;;;15.90;89.20;;;;;;4978362;28;20109;-67
2023/07/17 05:05:24;;;;;;;11.05;4.03;;;16.00;89.10;;;;;;4985287;28;20031;-67
2023/07/17 05:07:49;;;;;;;10.65;3.65;;;16.00;89.20;;;;;;4992314;28;20037;-68
2023/07/17 05:10:15;;;;;;;8.20;4.07;;;16.10;89.20;;;;;;4983727;28;20041;-68
2023/07/17 05:12:41;;;;;;;10.77;3.90;;;16.10;88.80;;;;;;4982240;28;20120;-67
2023/07/17 05:15:07;;;;;;;7.95;4.18;;;16.10;88.90;;;;;;4999592;28;20312;-67
2023/07/17 05:17:32;;;;;;;9.80;4.20;;;16.20;88.40;;;;;;4984985;28;20205;-67
2023/07/17 05:19:58;;;;;;;6.40;3.35;;;16.10;88.20;;;;;;4982953;28;20134;-69
2023/07/17 05:22:23;;;;;;;8.52;4.13;;;16.20;88.40;;;;;;4978930;28;20380;-67
2023/07/17 05:24:49;;;;;;;11.30;3.78;;;16.30;88.80;;;;;;4984136;28;20026;-66
2023/07/17 05:27:14;;;;;;;6.10;3.33;;;16.30;88.10;;;;;;4983893;28;20042;-67
2023/07/17 05:29:40;;;;;;;10.13;4.07;;;16.30;88.50;;;;;;4987021;28;20042;-68
2023/07/17 05:32:06;;;;;;;10.48;3.55;;;16.30;88.10;;;;;;4983048;28;20106;-67
2023/07/17 05:34:31;;;;;;;10.07;3.88;;;16.40;88.00;;;;;;4985217;28;20145;-66
2023/07/17 05:36:57;;;;;;;7.68;3.55;;;16.50;88.10;;;;;;4982969;28;20128;-69
2023/07/17 05:39:22;;;;;;;10.07;3.70;;;16.50;87.70;;;;;;4985897;28;20045;-66
2023/07/17 05:41:47;;;;;;;8.38;3.75;;;16.60;87.60;;;;;;4980911;28;20032;-68
2023/07/17 05:44:13;;;;;;;8.05;3.95;;;16.50;87.60;;;;;;4977816;28;20491;-68
2023/07/17 05:46:38;;;;;;;7.22;4.35;;;16.50;87.50;;;;;;4976511;28;20105;-69
2023/07/17 05:49:04;;;;;;;10.57;3.90;;;16.50;87.70;;;;;;4984983;28;20053;-67
2023/07/17 05:51:31;;;;;;;7.03;3.30;;;16.50;87.90;;;;;;4981260;28;20416;-67
2023/07/17 05:53:56;;;;;;;10.02;3.78;;;16.60;87.70;;;;;;4984939;28;20019;-67
2023/07/17 05:56:22;;;;;;;7.72;3.50;;;16.70;87.10;;;;;;4982762;28;20052;-71
2023/07/17 05:58:47;;;;;;;8.38;3.35;;;16.90;86.10;;;;;;4978492;28;20156;-67
2023/07/17 06:01:13;;;;;;;9.50;3.70;;;17.20;86.00;;;;;;4978793;28;20443;-67
2023/07/17 06:03:38;;;;;;;8.88;3.65;;;17.20;84.80;;;;;;4977601;28;20181;-68
2023/07/17 06:06:04;;;;;;;6.82;3.40;;;17.30;84.70;;;;;;4979650;28;20413;-67
2023/07/17 06:08:30;;;;;;;8.55;3.60;;;17.30;85.30;;;;;;4978282;28;20023;-67
2023/07/17 06:10:55;;;;;;;7.15;3.22;;;17.20;84.50;;;;;;4984629;28;20038;-67
2023/07/17 06:13:21;;;;;;;7.55;3.10;;;17.20;84.60;;;;;;4982671;28;20189;-68
2023/07/17 06:15:46;;;;;;;8.43;3.45;;;17.20;84.50;;;;;;4979220;28;20503;-68
2023/07/17 06:18:12;;;;;;;7.43;3.55;;;17.30;85.00;;;;;;4982898;28;20042;-67
2023/07/17 06:20:39;;;;;;;6.38;2.83;;;17.50;83.90;;;;;;4984712;28;20524;-67
2023/07/17 06:23:04;;;;;;;6.70;3.03;;;17.70;83.60;;;;;;4981647;28;20035;-67
2023/07/17 06:25:30;;;;;;;9.35;3.35;;;17.60;82.60;;;;;;4983133;28;20026;-67
2023/07/17 06:27:55;;;;;;;10.32;3.50;;;17.70;82.80;;;;;;4982405;28;20453;-67
2023/07/17 06:30:21;;;;;;;6.55;3.30;;;17.80;83.10;;;;;;4982534;28;20034;-68
2023/07/17 06:32:46;;;;;;;7.28;3.42;;;18.00;82.80;;;;;;4987519;28;20022;-68
2023/07/17 06:35:12;;;;;;;12.35;3.33;;;18.20;83.20;;;;;;4987449;28;20093;-69
2023/07/17 06:37:37;;;;;;;8.02;3.08;;;18.00;82.30;;;;;;4984017;28;20100;-69
2023/07/17 06:40:04;;;;;;;9.80;3.67;;;18.00;82.30;;;;;;4985886;28;20464;-69
2023/07/17 06:42:30;;;;;;;7.13;3.13;;;18.00;82.00;;;;;;4979044;28;20212;-68
2023/07/17 06:44:56;;;;;;;12.75;3.25;;;18.10;82.20;;;;;;4979488;28;20129;-68
2023/07/17 06:47:21;;;;;;;7.43;3.20;;;18.10;82.10;;;;;;4988659;28;20208;-70
2023/07/17 06:49:47;;;;;;;11.65;3.63;;;18.10;81.40;;;;;;4988079;28;20067;-69
2023/07/17 06:52:12;;;;;;;8.85;3.83;;;18.30;81.70;;;;;;4982304;28;20110;-72
2023/07/17 06:54:38;;;;;;;7.85;3.60;;;18.40;80.90;;;;;;4985737;28;20034;-69
2023/07/17 06:57:03;;;;;;;7.97;3.22;;;18.50;80.20;;;;;;4985614;28;20034;-71
2023/07/17 06:59:29;;;;;;;7.80;3.25;;;18.40;80.50;;;;;;4983632;28;20432;-69
2023/07/17 07:01:55;;;;;;;8.95;3.80;;;18.60;81.40;;;;;;4973503;28;20095;-69
2023/07/17 07:04:20;;;;;;;9.02;3.15;;;18.70;79.60;;;;;;4986701;28;20116;-71
2023/07/17 07:06:46;;;;;;;7.10;3.30;;;18.80;79.40;;;;;;4987767;28;20030;-69
2023/07/17 07:09:11;;;;;;;10.93;3.75;;;18.80;79.20;;;;;;5003558;28;20026;-69
2023/07/17 07:11:37;;;;;;;9.07;3.30;;;18.80;79.60;;;;;;4983955;28;20109;-69
2023/07/17 07:14:02;;;;;;;9.90;3.30;;;19.00;78.10;;;;;;4992075;28;20050;-70
2023/07/17 07:16:28;;;;;;;8.10;3.22;;;19.30;78.40;;;;;;4988811;28;20042;-71
2023/07/17 07:18:53;;;;;;;7.43;3.47;;;19.30;77.50;;;;;;4989800;28;20189;-69
2023/07/17 07:21:19;;;;;;;9.50;3.17;;;19.50;78.10;;;;;;4985014;28;20023;-69
2023/07/17 07:23:44;;;;;;;8.05;3.10;;;19.60;77.60;;;;;;4991080;28;20316;-70
2023/07/17 07:26:10;;;;;;;6.70;2.75;;;19.50;76.90;;;;;;4987492;28;20454;-69
2023/07/17 07:28:35;;;;;;;7.15;3.17;;;19.50;78.20;;;;;;4989347;28;20182;-69
2023/07/17 07:31:02;;;;;;;8.63;3.22;;;19.20;76.00;;;;;;4991003;28;20116;-69
2023/07/17 07:33:28;;;;;;;10.38;3.40;;;19.40;76.90;;;;;;4985610;28;20029;-69
2023/07/17 07:35:53;;;;;;;5.85;2.70;;;19.50;75.70;;;;;;4978227;28;20121;-69
2023/07/17 07:38:19;;;;;;;6.70;2.75;;;19.40;75.80;;;;;;4980616;28;20121;-70
2023/07/17 07:40:45;;;;;;;8.63;3.00;;;19.50;75.40;;;;;;4987685;28;20041;-70
2023/07/17 07:43:10;;;;;;;7.40;2.92;;;19.70;74.30;;;;;;4992100;28;20097;-70
2023/07/17 07:45:36;;;;;;;11.93;3.08;;;20.10;74.20;;;;;;4988946;28;20056;-70
2023/07/17 07:48:01;;;;;;;8.35;2.58;;;20.00;73.90;;;;;;4987598;28;20161;-69
2023/07/17 07:50:27;;;;;;;5.70;2.55;;;20.00;72.90;;;;;;4983580;28;20412;-69
2023/07/17 07:52:54;;;;;;;6.63;2.63;;;20.50;74.10;;;;;;4984595;28;20097;-69
2023/07/17 07:55:20;;;;;;;6.95;2.40;;;20.70;71.10;;;;;;4988106;28;20029;-69
2023/07/17 07:57:45;;;;;;;9.18;2.70;;;20.60;69.60;;;;;;4995704;28;20029;-69
2023/07/17 08:00:11;;;;;;;6.65;2.33;;;20.90;69.70;;;;;;4990116;28;20022;-69
2023/07/17 08:02:37;;;;;;;7.15;2.55;;;21.30;68.90;;;;;;4986350;28;20419;-69
2023/07/17 08:05:03;;;;;;;5.88;2.50;;;20.90;68.40;;;;;;4987950;28;20932;-69
2023/07/17 08:07:28;;;;;;;8.60;2.45;;;21.00;68.50;;;;;;4986814;28;20554;-69
2023/07/17 08:09:54;;;;;;;6.28;2.22;;;21.10;69.10;;;;;;4984157;28;20097;-69
2023/07/17 08:12:20;;;;;;;10.73;3.00;;;20.70;68.40;;;;;;4987863;28;20042;-69
2023/07/17 08:14:45;;;;;;;5.07;2.20;;;20.90;69.70;;;;;;4988096;28;20037;-69
2023/07/17 08:17:11;;;;;;;8.27;2.58;;;21.20;67.30;;;;;;4986645;28;20100;-70
2023/07/17 08:19:36;;;;;;;6.18;2.13;;;21.00;67.10;;;;;;4987346;28;20035;-69
2023/07/17 08:22:02;;;;;;;7.10;2.22;;;20.60;68.10;;;;;;4987057;28;20030;-70
2023/07/17 08:24:27;;;;;;;10.73;2.47;;;20.70;65.70;;;;;;4984359;28;20109;-70
2023/07/17 08:26:54;;;;;;;3.53;1.63;;;20.40;67.30;;;;;;4978863;28;20096;-69
2023/07/17 08:29:20;;;;;;;5.88;2.33;;;20.30;68.00;;;;;;4986628;28;20117;-72
2023/07/17 08:31:46;;;;;;;6.30;2.03;;;20.20;67.70;;;;;;4987524;28;20383;-69
2023/07/17 08:34:11;;;;;;;7.50;2.00;;;20.70;67.60;;;;;;4986551;28;20047;-69
2023/07/17 08:36:37;;;;;;;8.25;2.47;;;21.10;65.60;;;;;;4983926;28;20470;-70
2023/07/17 08:39:05;;;;;;;5.88;2.13;;;21.50;65.10;;;;;;4988722;28;20030;-70
2023/07/17 08:41:30;;;;;;;3.92;1.85;;;21.10;64.20;;;;;;4987112;28;20672;-71
2023/07/17 08:43:58;;;;;;;4.70;2.00;;;20.70;65.40;;;;;;4985817;28;20097;-69
2023/07/17 08:46:23;;;;;;;7.60;2.35;;;20.70;64.00;;;;;;4989842;28;20100;-70
2023/07/17 08:48:52;;;;;;;6.47;2.10;;;20.80;64.20;;;;;;4988532;28;20463;-69
2023/07/17 08:51:19;;;;;;;5.95;2.03;;;21.20;62.60;;;;;;4984477;28;20030;-70
2023/07/17 08:53:44;;;;;;;7.18;1.80;;;21.00;62.60;;;;;;4983117;28;20033;-71
2023/07/17 08:56:11;;;;;;;4.93;1.88;;;20.50;62.00;;;;;;4986375;28;20039;-70
2023/07/17 08:58:37;;;;;;;4.10;1.67;;;21.10;62.10;;;;;;4980980;28;20031;-69
2023/07/17 09:01:04;;;;;;;4.72;1.88;;;21.20;61.20;;;;;;4989246;28;20026;-69
2023/07/17 09:03:32;;;;;;;6.18;2.20;;;21.40;60.40;;;;;;4983483;28;20026;-69
2023/07/17 09:05:58;;;;;;;3.13;2.05;;;21.80;59.40;;;;;;4986139;28;20038;-70
2023/07/17 09:08:24;;;;;;;5.30;2.30;;;21.70;56.80;;;;;;4984208;28;20022;-70
2023/07/17 09:11:06;;;;;;;4.75;1.60;;;21.90;58.90;;;;;;4987002;28;20478;-69
2023/07/17 09:13:44;;;;;;;6.50;2.17;;;22.00;57.40;;;;;;4991871;28;20088;-72
2023/07/17 09:16:18;;;;;;;4.45;1.90;;;21.70;55.10;;;;;;4981339;28;20429;-69
2023/07/17 09:18:47;;;;;;;7.38;2.15;;;21.80;54.70;;;;;;4996556;28;20087;-69
2023/07/17 09:21:18;;;;;;;7.22;2.10;;;22.00;56.20;;;;;;4987388;28;20039;-69
2023/07/17 09:23:54;;;;;;;4.57;1.90;;;22.20;54.90;;;;;;4989940;28;20026;-69
2023/07/17 09:26:22;;;;;;;5.40;2.15;;;22.50;54.30;;;;;;4984505;28;20026;-69
2023/07/17 09:28:49;;;;;;;5.35;1.95;;;23.10;54.30;;;;;;4987874;28;20168;-69
2023/07/17 09:31:22;;;;;;;4.25;1.70;;;23.20;53.30;;;;;;4986268;28;20029;-70
2023/07/17 09:33:48;;;;;;;3.20;1.80;;;22.80;53.50;;;;;;4985500;28;20054;-70
2023/07/17 09:36:13;;;;;;;3.92;2.05;;;22.90;52.40;;;;;;4986057;28;20420;-69
2023/07/17 09:38:39;;;;;;;3.97;1.65;;;22.30;53.30;;;;;;4980127;28;20095;-69
2023/07/17 09:41:25;;;;;;;3.67;1.52;;;22.00;54.00;;;;;;4979095;28;20023;-70
2023/07/17 09:43:58;;;;;;;5.05;1.98;;;22.00;54.50;;;;;;4980830;28;20147;-71
2023/07/17 09:46:26;;;;;;;5.88;2.20;;;22.20;54.90;;;;;;4980063;28;20154;-70
2023/07/17 09:48:53;;;;;;;4.32;1.90;;;21.90;55.40;;;;;;4986661;28;20459;-69
2023/07/17 09:51:20;;;;;;;4.32;2.05;;;21.60;56.80;;;;;;4986072;28;20027;-69
2023/07/17 09:53:47;;;;;;;5.30;2.10;;;21.70;56.50;;;;;;4983057;28;20370;-69
2023/07/17 09:56:18;;;;;;;5.85;2.28;;;22.00;55.40;;;;;;4988167;28;20169;-70
2023/07/17 09:58:53;;;;;;;5.68;1.80;;;22.00;55.20;;;;;;4987980;28;20129;-68
2023/07/17 10:01:21;;;;;;;5.75;2.28;;;22.50;55.20;;;;;;4978628;28;20493;-69
2023/07/17 10:03:48;;;;;;;7.32;2.20;;;22.90;54.00;;;;;;4986704;28;20023;-70
2023/07/17 10:06:15;;;;;;;4.50;2.00;;;22.50;54.20;;;;;;4986634;28;20030;-70
2023/07/17 10:08:49;;;;;;;4.72;2.35;;;21.90;54.80;;;;;;4990834;28;20373;-70
2023/07/17 10:11:17;;;;;;;5.20;2.13;;;22.00;54.00;;;;;;4984413;28;20467;-69
2023/07/17 10:13:44;;;;;;;4.22;1.73;;;21.50;54.70;;;;;;4988158;28;20022;-69
2023/07/17 10:16:12;;;;;;;9.77;2.38;;;21.90;54.10;;;;;;4988446;28;20065;-70
2023/07/17 10:18:50;;;;;;;5.55;2.20;;;22.50;54.20;;;;;;4984845;28;20069;-69
2023/07/17 10:21:17;;;;;;;5.45;2.30;;;22.30;52.50;;;;;;4989220;28;20378;-72
2023/07/17 10:23:44;;;;;;;8.98;2.55;;;22.00;53.30;;;;;;4986009;28;20105;-70
2023/07/17 10:26:11;;;;;;;5.35;2.15;;;21.60;54.60;;;;;;4984753;28;20022;-70
2023/07/17 10:28:37;;;;;;;6.35;2.30;;;22.10;54.60;;;;;;4991209;28;20026;-70
2023/07/17 10:31:20;;;;;;;5.72;2.28;;;22.90;52.90;;;;;;4984062;28;20046;-70
2023/07/17 10:33:50;;;;;;;9.10;2.10;;;22.50;53.10;;;;;;4989185;28;20038;-71
2023/07/17 10:36:16;;;;;;;6.45;2.40;;;22.20;53.70;;;;;;4989274;28;20447;-70
2023/07/17 10:38:51;;;;;;;6.43;2.47;;;22.10;53.80;;;;;;4987520;28;20092;-70
2023/07/17 10:41:16;;;;;;;5.60;2.20;;;22.10;54.60;;;;;;4988652;28;20044;-70
2023/07/17 10:44:03;;;;;;;6.32;2.40;;;22.60;53.50;;;;;;4990296;28;20113;-71
2023/07/17 10:46:31;;;;;;;4.97;2.13;;;23.20;52.90;;;;;;4988251;28;20034;-71
2023/07/17 10:49:12;;;;;;;8.88;2.20;;;23.80;52.60;;;;;;4990541;28;20074;-71
2023/07/17 10:51:45;;;;;;;5.35;2.10;;;23.50;50.00;;;;;;4987349;28;20384;-70
2023/07/17 10:54:12;;;;;;;7.20;2.45;;;22.80;50.60;;;;;;4986668;28;20088;-71
2023/07/17 10:56:37;;;;;;;5.13;2.30;;;22.80;52.80;;;;;;4986220;28;20026;-71
2023/07/17 10:59:04;;;;;;;6.80;2.30;;;23.00;52.70;;;;;;4990928;28;20022;-70
2023/07/17 11:01:30;;;;;;;6.28;2.17;;;23.80;54.60;;;;;;4988991;28;20022;-71
2023/07/17 11:03:56;;;;;;;6.45;2.13;;;23.60;53.60;;;;;;4988198;28;20105;-70
2023/07/17 11:06:25;;;;;;;6.78;2.42;;;23.60;52.00;;;;;;4988353;28;20038;-70
2023/07/17 11:08:51;;;;;;;6.90;2.30;;;23.40;51.70;;;;;;4987242;28;20141;-71
2023/07/17 11:11:18;;;;;;;5.80;2.25;;;22.80;52.70;;;;;;4987001;28;20113;-70
2023/07/17 11:13:45;;;;;;;6.85;2.45;;;23.50;53.50;;;;;;4986171;28;20022;-76
2023/07/17 11:16:11;;;;;;;5.90;2.80;;;23.70;51.40;;;;;;4978509;28;21301;-71
2023/07/17 11:18:47;;;;;;;8.63;2.20;;;23.50;51.10;;;;;;4981558;28;20030;-71
2023/07/17 11:21:17;;;;;;;5.40;2.17;;;22.90;53.10;;;;;;4986406;28;20022;-69
2023/07/17 11:23:53;;;;;;;5.50;2.47;;;23.20;53.20;;;;;;4980244;28;20069;-72
2023/07/17 11:26:24;;;;;;;5.50;2.25;;;23.40;51.40;;;;;;4988235;28;20280;-70
2023/07/17 11:28:57;;;;;;;7.78;2.42;;;22.80;52.60;;;;;;4989116;28;20060;-69
2023/07/17 11:31:24;;;;;;;7.97;2.30;;;22.70;53.30;;;;;;4979178;28;20041;-68
2023/07/17 11:33:56;;;;;;;6.68;2.42;;;22.40;53.40;;;;;;4989826;28;20449;-68
2023/07/17 11:36:21;;;;;;;5.30;2.65;;;22.00;54.80;;;;;;4983675;28;20370;-69
2023/07/17 11:38:47;;;;;;;7.78;2.47;;;21.90;55.60;;;;;;4976702;28;20034;-69
2023/07/17 11:41:12;;;;;;;6.80;2.53;;;21.80;55.50;;;;;;4990696;28;20038;-69
2023/07/17 11:43:37;;;;;;;7.07;2.28;;;22.00;56.00;;;;;;4989327;28;20040;-68
2023/07/17 11:46:06;;;;;;;7.80;3.10;;;22.00;56.70;;;;;;4981052;28;20065;-68
2023/07/17 11:48:33;;;;;;;4.72;2.45;;;21.80;56.90;;;;;;4991984;28;20026;-69
2023/07/17 11:51:04;;;;;;;8.05;2.95;;;21.60;57.00;;;;;;4987615;28;20034;-69
2023/07/17 11:53:30;;;;;;;6.00;2.58;;;21.60;57.80;;;;;;4988824;28;20339;-69
2023/07/17 11:55:58;;;;;;;5.95;2.42;;;22.10;56.40;;;;;;4993037;28;20034;-69
2023/07/17 11:58:25;;;;;;;7.18;2.67;;;22.00;56.10;;;;;;4989119;28;20036;-76
2023/07/17 12:00:53;;;;;;;8.10;2.85;;;22.00;57.00;;;;;;4966303;28;21093;-71
2023/07/17 12:03:19;;;;;;;7.15;2.83;;;22.60;56.70;;;;;;4973732;28;20034;-68
2023/07/17 12:05:46;;;;;;;6.82;2.72;;;22.70;56.10;;;;;;4967752;28;20286;-69
2023/07/17 12:08:12;;;;;;;5.05;2.10;;;22.60;54.50;;;;;;4969943;28;20076;-70
2023/07/17 12:10:38;;;;;;;7.80;2.58;;;22.60;54.60;;;;;;4965247;28;20419;-70
2023/07/17 12:13:04;;;;;;;6.80;2.53;;;22.50;52.60;;;;;;4971536;28;20125;-71
2023/07/17 12:15:31;;;;;;;7.05;2.33;;;22.50;53.10;;;;;;4970328;28;20035;-71
2023/07/17 12:17:57;;;;;;;4.22;1.98;;;22.50;53.90;;;;;;4970359;28;20042;-69
2023/07/17 12:20:23;;;;;;;5.43;2.13;;;22.10;57.20;;;;;;4974125;28;20375;-70
2023/07/17 12:22:52;;;;;;;6.35;2.17;;;21.80;59.20;;;;;;4980815;28;20176;-67
2023/07/17 12:25:18;;;;;;;6.55;2.00;;;23.00;56.50;;;;;;4985416;28;20049;-69
2023/07/17 12:27:44;;;;;;;4.68;1.73;;;22.60;57.10;;;;;;4981523;28;20038;-70
2023/07/17 12:30:10;;;;;;;4.90;2.00;;;21.70;59.50;;;;;;4997017;28;20022;-68
2023/07/17 12:32:38;;;;;;;3.15;1.60;;;22.90;57.70;;;;;;4974111;28;20510;-69
2023/07/17 12:35:05;;;;;;;9.30;2.10;;;23.10;57.20;;;;;;4989891;28;20442;-69
2023/07/17 12:37:31;;;;;;;4.47;1.67;;;24.30;55.10;;;;;;4987638;28;20042;-69
2023/07/17 12:39:57;;;;;;;5.72;1.80;;;23.80;54.70;;;;;;4990298;28;20042;-68
2023/07/17 12:42:23;;;;;;;5.28;1.83;;;22.90;56.40;;;;;;4986108;28;20042;-68